Time;durP1;ratioP1;P1;durP2;ratioP2;P2;SDS_P1;SDS_P2;PMS_P1;PMS_P2;Temp;Humidity;BMP_temperature;BMP_pressure;BME280_temperature;BME280_humidity;BME280_pressure;Samples;Min_cycle;Max_cycle;Signal;HPM_P1;HPM_P2
2022/04/07 00:00:31;;;;;;;6.27;4.30;;;11.00;1.00;;;;;;5090663;28;20595;-75
2022/04/07 00:02:59;;;;;;;8.00;5.00;;;10.90;1.00;;;;;;5091755;28;20197;-75
2022/04/07 00:05:26;;;;;;;6.30;4.60;;;10.90;99.90;;;;;;5091626;28;20205;-75
2022/04/07 00:07:53;;;;;;;6.20;4.17;;;11.00;1.00;;;;;;5091497;28;20202;-74
2022/04/07 00:10:21;;;;;;;6.60;4.10;;;11.00;1.00;;;;;;5091434;28;20204;-75
2022/04/07 00:12:48;;;;;;;7.30;4.27;;;11.00;1.00;;;;;;5090703;28;20197;-75
2022/04/07 00:15:14;;;;;;;7.10;4.13;;;10.90;1.00;;;;;;5092524;28;20225;-75
2022/04/07 00:17:41;;;;;;;7.70;5.03;;;10.90;1.00;;;;;;5091668;28;20201;-75
2022/04/07 00:20:11;;;;;;;5.03;4.20;;;10.90;1.00;;;;;;5091663;28;20205;-75
2022/04/07 00:22:38;;;;;;;7.10;4.40;;;10.90;1.00;;;;;;5090571;28;20248;-75
2022/04/07 00:25:06;;;;;;;7.20;4.30;;;10.80;1.00;;;;;;5091774;28;20563;-75
2022/04/07 00:27:32;;;;;;;8.17;4.57;;;10.70;1.00;;;;;;5090846;28;20581;-75
2022/04/07 00:29:59;;;;;;;6.73;4.33;;;10.60;1.00;;;;;;5091154;28;20198;-75
2022/04/07 00:32:26;;;;;;;6.77;4.80;;;10.70;1.00;;;;;;5090814;28;20664;-74
2022/04/07 00:34:54;;;;;;;7.97;4.47;;;10.60;1.00;;;;;;5090051;28;20240;-75
2022/04/07 00:37:23;;;;;;;5.57;4.33;;;10.60;37.50;;;;;;5071476;28;20252;-74
2022/04/07 00:39:50;;;;;;;6.67;4.43;;;10.50;99.90;;;;;;5089497;28;20637;-75
2022/04/07 00:42:17;;;;;;;8.40;4.60;;;10.40;1.00;;;;;;5091270;28;20251;-75
2022/04/07 00:44:45;;;;;;;6.77;4.50;;;10.50;1.00;;;;;;5091325;28;20233;-75
2022/04/07 00:47:11;;;;;;;6.73;4.43;;;10.40;99.90;;;;;;5092610;28;20201;-75
2022/04/07 00:49:38;;;;;;;4.37;3.93;;;10.50;99.90;;;;;;5094625;28;20216;-75
2022/04/07 00:52:08;;;;;;;8.63;4.03;;;10.50;1.00;;;;;;5094178;28;20201;-75
2022/04/07 00:54:37;;;;;;;7.80;4.20;;;10.50;1.00;;;;;;5094687;28;20198;-75
2022/04/07 00:57:05;;;;;;;7.03;4.60;;;10.50;1.00;;;;;;5094848;28;20202;-75
2022/04/07 00:59:35;;;;;;;4.77;4.20;;;10.50;1.00;;;;;;5094676;28;20567;-75
2022/04/07 01:02:02;;;;;;;5.33;4.23;;;10.60;1.00;;;;;;5094489;28;20197;-75
2022/04/07 01:04:29;;;;;;;7.57;4.20;;;10.60;1.00;;;;;;5095006;28;20198;-75
2022/04/07 01:06:56;;;;;;;6.60;3.80;;;10.50;99.90;;;;;;5094743;28;20663;-75
2022/04/07 01:09:24;;;;;;;9.23;4.50;;;10.50;99.20;;;;;;5094808;28;20202;-75
2022/04/07 01:11:53;;;;;;;6.23;4.00;;;10.50;96.70;;;;;;5094634;28;20198;-75
2022/04/07 01:14:19;;;;;;;6.90;3.77;;;10.50;1.00;;;;;;5094349;28;20194;-76
2022/04/07 01:16:47;;;;;;;8.40;4.40;;;10.50;1.00;;;;;;5094362;28;20668;-75
2022/04/07 01:19:13;;;;;;;6.60;4.27;;;10.50;1.00;;;;;;5093295;28;20197;-76
2022/04/07 01:21:42;;;;;;;7.73;4.57;;;10.40;99.90;;;;;;5094610;28;20212;-77
2022/04/07 01:24:10;;;;;;;7.90;4.67;;;10.20;1.00;;;;;;5093770;28;20233;-77
2022/04/07 01:26:42;;;;;;;6.33;4.20;;;10.10;1.00;;;;;;5094255;28;20603;-77
2022/04/07 01:29:11;;;;;;;9.10;4.60;;;9.90;50.20;;;;;;5093973;28;20198;-78
2022/04/07 01:31:38;;;;;;;10.17;4.80;;;9.90;99.90;;;;;;5094723;28;20200;-79
2022/04/07 01:34:08;;;;;;;8.13;4.50;;;9.70;99.90;;;;;;5094709;28;20571;-78
2022/04/07 01:36:40;;;;;;;9.00;4.83;;;9.60;99.90;;;;;;5094688;28;20567;-78
2022/04/07 01:39:09;;;;;;;7.53;4.53;;;9.60;99.90;;;;;;5092076;28;20217;-78
2022/04/07 01:41:39;;;;;;;8.57;4.67;;;9.60;99.90;;;;;;5093802;28;20221;-78
2022/04/07 01:44:08;;;;;;;7.47;4.60;;;9.60;99.90;;;;;;5094177;28;20197;-78
2022/04/07 01:46:35;;;;;;;6.27;4.40;;;9.60;99.90;;;;;;5094353;28;20217;-78
2022/04/07 01:49:03;;;;;;;7.07;4.33;;;9.50;99.90;;;;;;5092745;28;20201;-78
2022/04/07 01:51:30;;;;;;;6.47;4.20;;;9.60;99.90;;;;;;5093526;28;20205;-78
2022/04/07 01:53:57;;;;;;;6.63;4.43;;;9.60;99.90;;;;;;5092995;28;20212;-77
2022/04/07 01:56:25;;;;;;;7.67;4.60;;;9.50;99.90;;;;;;5093449;28;20256;-78
2022/04/07 01:58:54;;;;;;;8.33;4.63;;;9.50;99.90;;;;;;5091131;28;20672;-78
2022/04/07 02:01:21;;;;;;;7.67;4.07;;;9.50;99.90;;;;;;5093507;28;20240;-78
2022/04/07 02:03:48;;;;;;;8.83;5.23;;;9.50;99.90;;;;;;5094153;28;20213;-78
2022/04/07 02:06:16;;;;;;;8.53;4.93;;;9.40;99.90;;;;;;5094440;28;20228;-78
2022/04/07 02:08:44;;;;;;;8.37;4.37;;;9.50;99.90;;;;;;5092431;28;20211;-78
2022/04/07 02:11:11;;;;;;;8.07;4.33;;;9.50;99.90;;;;;;5092888;28;20205;-79
2022/04/07 02:13:39;;;;;;;7.50;4.70;;;9.50;99.90;;;;;;5093177;28;20292;-78
2022/04/07 02:16:08;;;;;;;7.30;4.40;;;9.50;99.90;;;;;;5093689;28;20224;-79
2022/04/07 02:18:36;;;;;;;6.50;4.10;;;9.50;99.90;;;;;;5092843;28;20198;-78
2022/04/07 02:21:03;;;;;;;6.13;3.57;;;9.40;99.90;;;;;;5092729;28;20640;-78
2022/04/07 02:23:30;;;;;;;7.30;3.70;;;9.50;99.90;;;;;;5092828;28;20292;-77
2022/04/07 02:25:57;;;;;;;3.43;2.67;;;9.60;99.90;;;;;;5092878;28;20240;-77
2022/04/07 02:28:26;;;;;;;3.83;2.37;;;9.70;99.90;;;;;;5092740;28;20220;-77
2022/04/07 02:30:53;;;;;;;5.47;2.47;;;9.70;99.90;;;;;;5091908;28;20190;-77
2022/04/07 02:33:21;;;;;;;5.30;2.40;;;9.70;69.20;;;;;;5093107;28;20572;-78
2022/04/07 02:35:48;;;;;;;3.27;2.27;;;9.70;99.90;;;;;;5093063;28;20221;-78
2022/04/07 02:38:15;;;;;;;4.30;1.97;;;9.70;93.00;;;;;;5092688;28;20201;-79
2022/04/07 02:40:45;;;;;;;2.87;1.80;;;9.60;99.90;;;;;;5092570;28;20280;-77
2022/04/07 02:43:12;;;;;;;2.97;1.90;;;9.60;86.40;;;;;;5093481;28;20259;-77
2022/04/07 02:45:39;;;;;;;4.50;2.30;;;9.50;82.10;;;;;;5102215;28;20562;-78
2022/04/07 02:48:06;;;;;;;2.50;1.57;;;9.30;99.90;;;;;;5100213;28;20206;-77
2022/04/07 02:50:34;;;;;;;3.87;1.93;;;9.30;99.90;;;;;;5091756;28;20198;-77
2022/04/07 02:53:01;;;;;;;3.93;1.80;;;9.30;99.90;;;;;;5091198;28;20194;-77
2022/04/07 02:55:28;;;;;;;2.83;1.60;;;9.20;99.90;;;;;;5092479;28;20206;-78
2022/04/07 02:57:58;;;;;;;3.50;1.60;;;9.10;99.90;;;;;;5092565;28;20197;-77
2022/04/07 03:00:25;;;;;;;2.70;1.70;;;9.20;99.90;;;;;;5091891;28;20213;-77
2022/04/07 03:02:52;;;;;;;2.90;1.30;;;9.20;99.90;;;;;;5092630;28;20659;-78
2022/04/07 03:05:19;;;;;;;1.43;1.33;;;9.20;99.80;;;;;;5092366;28;20202;-78
2022/04/07 03:07:48;;;;;;;1.43;1.33;;;9.20;83.50;;;;;;5081359;28;20205;-78
2022/04/07 03:10:15;;;;;;;1.80;1.70;;;9.30;27.00;;;;;;5092338;28;20205;-78
2022/04/07 03:12:42;;;;;;;2.73;1.53;;;9.50;1.00;;;;;;5092253;28;20568;-78
2022/04/07 03:15:10;;;;;;;1.67;1.57;;;9.40;1.00;;;;;;5093026;28;20251;-78
2022/04/07 03:17:36;;;;;;;3.43;1.60;;;9.50;1.00;;;;;;5091394;28;20715;-76
2022/04/07 03:20:05;;;;;;;2.50;1.77;;;9.40;1.00;;;;;;5091908;28;20190;-76
2022/04/07 03:22:32;;;;;;;1.50;1.40;;;9.40;1.00;;;;;;5091693;28;20207;-76
2022/04/07 03:25:00;;;;;;;3.33;2.00;;;9.50;1.00;;;;;;5092815;28;20301;-76
2022/04/07 03:27:27;;;;;;;3.77;2.40;;;9.40;1.00;;;;;;5091501;28;20193;-76
2022/04/07 03:29:54;;;;;;;4.20;1.67;;;9.40;1.00;;;;;;5092022;28;20194;-76
2022/04/07 03:32:21;;;;;;;1.90;1.77;;;9.30;1.00;;;;;;5091489;28;20231;-76
2022/04/07 03:34:48;;;;;;;2.00;1.40;;;9.40;1.00;;;;;;5072275;28;20209;-76
2022/04/07 03:37:15;;;;;;;1.90;1.57;;;9.40;1.00;;;;;;5072366;28;20230;-76
2022/04/07 03:39:43;;;;;;;4.10;2.10;;;9.40;1.00;;;;;;5072035;28;20573;-77
2022/04/07 03:42:12;;;;;;;2.40;1.90;;;9.30;1.00;;;;;;5079115;28;20652;-76
2022/04/07 03:44:38;;;;;;;2.03;1.73;;;9.40;1.00;;;;;;5092489;28;20316;-76
2022/04/07 03:47:06;;;;;;;5.33;2.17;;;9.40;1.00;;;;;;5092456;28;20209;-76
2022/04/07 03:49:33;;;;;;;3.47;1.70;;;9.40;1.00;;;;;;5090615;28;20209;-76
2022/04/07 03:52:00;;;;;;;1.97;1.83;;;9.40;1.00;;;;;;5091810;28;20663;-76
2022/04/07 03:54:27;;;;;;;3.40;1.87;;;9.40;1.00;;;;;;5091642;28;20186;-76
2022/04/07 03:56:54;;;;;;;3.80;1.83;;;9.40;1.00;;;;;;5091869;28;20225;-76
2022/04/07 03:59:23;;;;;;;1.83;1.67;;;9.50;1.00;;;;;;5090886;28;20311;-76
2022/04/07 04:01:50;;;;;;;3.13;1.90;;;9.50;1.00;;;;;;5091832;28;20231;-75
2022/04/07 04:04:20;;;;;;;2.93;2.00;;;9.60;1.00;;;;;;5091810;28;20217;-75
2022/04/07 04:06:47;;;;;;;2.20;1.97;;;9.60;1.00;;;;;;5091673;28;20208;-76
2022/04/07 04:09:13;;;;;;;2.03;1.70;;;9.50;1.00;;;;;;5091349;28;20284;-76
2022/04/07 04:11:41;;;;;;;4.30;1.97;;;9.50;1.00;;;;;;5088855;28;20204;-75
2022/04/07 04:14:08;;;;;;;4.00;1.77;;;9.50;1.00;;;;;;5091421;28;20213;-75
2022/04/07 04:16:36;;;;;;;4.63;2.03;;;9.60;1.00;;;;;;5091904;28;20221;-75
2022/04/07 04:19:04;;;;;;;1.47;1.30;;;9.80;99.90;;;;;;5090315;28;20287;-75
2022/04/07 04:21:31;;;;;;;3.63;1.70;;;9.80;99.90;;;;;;5092059;28;20205;-75
2022/04/07 04:23:58;;;;;;;3.07;1.50;;;9.80;99.90;;;;;;5095950;28;20580;-75
2022/04/07 04:26:26;;;;;;;5.23;3.10;;;9.70;91.50;;;;;;5096333;28;20284;-75
2022/04/07 04:28:53;;;;;;;2.63;1.50;;;9.80;25.80;;;;;;5094525;28;20225;-75
2022/04/07 04:31:24;;;;;;;3.57;1.60;;;9.80;1.00;;;;;;5095255;28;20202;-75
2022/04/07 04:33:54;;;;;;;2.57;2.33;;;9.90;1.00;;;;;;5094752;28;20205;-75
2022/04/07 04:36:21;;;;;;;3.37;1.70;;;9.90;1.00;;;;;;5095405;28;20687;-75
2022/04/07 04:38:48;;;;;;;2.47;1.63;;;9.80;1.00;;;;;;5093286;28;20212;-75
2022/04/07 04:41:16;;;;;;;5.13;2.20;;;9.90;1.00;;;;;;5094652;28;20201;-75
2022/04/07 04:43:43;;;;;;;2.93;1.70;;;9.90;1.00;;;;;;5094079;28;20200;-74
2022/04/07 04:46:09;;;;;;;3.17;1.50;;;10.00;1.00;;;;;;5095217;28;20384;-74
2022/04/07 04:48:38;;;;;;;1.97;1.60;;;10.00;1.00;;;;;;5095356;28;20560;-74
2022/04/07 04:51:06;;;;;;;1.50;1.27;;;10.10;1.00;;;;;;5095942;28;20216;-74
2022/04/07 04:53:33;;;;;;;4.67;1.60;;;10.00;1.00;;;;;;5094987;28;20656;-74
2022/04/07 04:56:00;;;;;;;4.57;1.83;;;10.00;1.00;;;;;;5096020;28;20190;-74
2022/04/07 04:58:27;;;;;;;4.13;1.60;;;10.00;1.00;;;;;;5094646;28;20613;-74
2022/04/07 05:00:54;;;;;;;3.00;1.50;;;9.90;1.00;;;;;;5094445;28;20245;-74
2022/04/07 05:03:21;;;;;;;3.90;1.83;;;10.00;1.00;;;;;;5095440;28;20557;-74
2022/04/07 05:05:48;;;;;;;1.40;1.30;;;10.00;1.00;;;;;;5095097;28;20679;-74
2022/04/07 05:08:16;;;;;;;2.07;1.10;;;10.00;47.00;;;;;;5094422;28;20671;-74
2022/04/07 05:10:43;;;;;;;2.10;1.37;;;10.10;99.90;;;;;;5095312;28;20237;-74
2022/04/07 05:13:10;;;;;;;2.87;1.47;;;10.30;1.00;;;;;;5094555;28;20651;-74
2022/04/07 05:15:39;;;;;;;2.13;1.40;;;10.30;1.00;;;;;;5095703;28;20202;-73
2022/04/07 05:18:07;;;;;;;4.07;1.63;;;10.30;1.00;;;;;;5095404;28;20231;-74
2022/04/07 05:20:33;;;;;;;2.63;1.20;;;10.30;1.00;;;;;;5094009;28;20202;-74
2022/04/07 05:23:00;;;;;;;2.27;1.27;;;10.30;1.00;;;;;;5095080;28;20212;-74
2022/04/07 05:25:29;;;;;;;2.67;1.43;;;10.30;1.00;;;;;;5094849;28;20209;-74
2022/04/07 05:27:55;;;;;;;1.07;0.97;;;10.30;99.90;;;;;;5094805;28;20206;-75
2022/04/07 05:30:22;;;;;;;3.40;1.40;;;10.30;1.00;;;;;;5093722;28;20213;-75
2022/04/07 05:32:49;;;;;;;2.63;1.30;;;10.30;1.00;;;;;;5094742;28;20209;-75
2022/04/07 05:35:16;;;;;;;5.37;1.40;;;10.30;1.00;;;;;;5094749;28;20205;-75
2022/04/07 05:37:43;;;;;;;1.00;1.00;;;10.30;1.00;;;;;;5094003;28;20825;-75
2022/04/07 05:40:12;;;;;;;5.07;1.03;;;10.40;99.90;;;;;;5093307;28;20221;-75
2022/04/07 05:42:41;;;;;;;1.87;1.10;;;10.50;99.90;;;;;;5093711;28;20335;-75
2022/04/07 05:45:09;;;;;;;3.03;1.07;;;10.60;99.90;;;;;;5093829;28;20600;-75
2022/04/07 05:47:39;;;;;;;4.40;1.20;;;10.60;1.00;;;;;;5093483;28;20496;-75
2022/04/07 05:50:07;;;;;;;2.23;1.00;;;10.70;99.90;;;;;;5093959;28;20223;-75
2022/04/07 05:52:34;;;;;;;3.70;1.20;;;10.90;1.00;;;;;;5094202;28;20201;-75
2022/04/07 05:55:01;;;;;;;2.83;1.00;;;10.80;1.00;;;;;;5094508;28;20558;-75
2022/04/07 05:57:30;;;;;;;1.97;1.00;;;10.90;1.00;;;;;;5094534;28;20221;-75
2022/04/07 06:00:07;;;;;;;1.20;0.80;;;10.80;1.00;;;;;;5093219;28;20206;-75
2022/04/07 06:02:33;;;;;;;2.63;1.27;;;10.90;1.00;;;;;;5094293;28;20663;-75
2022/04/07 06:05:00;;;;;;;2.23;0.97;;;11.10;99.90;;;;;;5094416;28;20201;-75
2022/04/07 06:07:27;;;;;;;1.47;0.70;;;11.50;1.00;;;;;;5093295;28;20197;-75
2022/04/07 06:09:54;;;;;;;3.30;1.00;;;12.10;99.90;;;;;;5093206;28;20198;-75
2022/04/07 06:12:21;;;;;;;3.47;1.10;;;11.80;1.00;;;;;;5093530;28;20580;-75
2022/04/07 06:14:48;;;;;;;1.87;0.90;;;11.70;99.90;;;;;;5094273;28;20201;-75
2022/04/07 06:17:16;;;;;;;2.73;1.00;;;12.00;1.00;;;;;;5092993;28;20224;-75
2022/04/07 06:19:43;;;;;;;1.53;0.90;;;11.70;1.00;;;;;;5092716;28;20209;-75
2022/04/07 06:22:11;;;;;;;3.40;0.97;;;11.70;99.90;;;;;;5092270;28;20202;-75
2022/04/07 06:24:38;;;;;;;2.83;1.00;;;12.70;99.90;;;;;;5094020;28;20206;-75
2022/04/07 06:27:05;;;;;;;1.70;0.70;;;13.40;1.00;;;;;;5093438;28;20205;-76
2022/04/07 06:29:32;;;;;;;1.50;0.77;;;14.10;1.00;;;;;;5093029;28;20259;-76
2022/04/07 06:31:59;;;;;;;2.00;1.00;;;14.30;1.00;;;;;;5093410;28;20885;-75
2022/04/07 06:34:27;;;;;;;4.10;1.00;;;14.60;1.00;;;;;;5093394;28;20209;-75
2022/04/07 06:36:54;;;;;;;2.80;1.07;;;14.30;1.00;;;;;;5093466;28;20212;-75
2022/04/07 06:39:21;;;;;;;3.87;0.90;;;13.00;99.90;;;;;;5095814;28;20656;-75
2022/04/07 06:41:47;;;;;;;2.60;0.80;;;12.50;1.00;;;;;;5093616;28;20202;-75
2022/04/07 06:44:14;;;;;;;3.33;0.87;;;12.60;1.00;;;;;;5092792;28;20212;-75
2022/04/07 06:46:41;;;;;;;2.13;0.83;;;12.90;1.00;;;;;;5093375;28;20584;-75
2022/04/07 06:49:08;;;;;;;0.97;0.80;;;12.70;1.00;;;;;;5100939;28;20212;-75
2022/04/07 06:51:36;;;;;;;2.13;0.83;;;12.70;1.00;;;;;;5110030;28;20203;-75
2022/04/07 06:54:03;;;;;;;3.83;1.10;;;12.40;1.00;;;;;;5112399;28;20204;-75
2022/04/07 06:56:30;;;;;;;2.90;1.00;;;12.30;99.90;;;;;;5110856;28;20594;-75
2022/04/07 06:58:57;;;;;;;2.60;1.03;;;12.00;99.90;;;;;;5092753;28;20200;-75
2022/04/07 07:01:24;;;;;;;2.87;1.07;;;11.70;1.00;;;;;;5092776;28;20204;-75
2022/04/07 07:03:50;;;;;;;2.30;0.90;;;11.60;1.00;;;;;;5092975;28;20292;-75
2022/04/07 07:06:17;;;;;;;1.90;0.60;;;11.50;1.00;;;;;;5092387;28;20631;-75
2022/04/07 07:08:46;;;;;;;2.70;0.90;;;11.60;1.00;;;;;;5092647;28;20203;-75
2022/04/07 07:11:14;;;;;;;1.70;0.63;;;11.60;99.90;;;;;;5093109;28;20205;-75
2022/04/07 07:13:41;;;;;;;0.57;0.57;;;11.50;99.90;;;;;;5092072;28;20304;-75
2022/04/07 07:16:08;;;;;;;3.50;1.00;;;11.50;1.00;;;;;;5091807;28;20205;-75
2022/04/07 07:18:34;;;;;;;0.67;0.63;;;11.40;1.00;;;;;;5091602;28;20248;-75
2022/04/07 07:21:01;;;;;;;3.00;0.80;;;11.50;1.00;;;;;;5092409;28;20292;-75
2022/04/07 07:23:28;;;;;;;1.27;0.80;;;11.50;1.00;;;;;;5093036;28;20683;-75
2022/04/07 07:25:57;;;;;;;0.93;0.60;;;11.40;1.00;;;;;;5091793;28;20210;-75
2022/04/07 07:28:24;;;;;;;1.60;0.87;;;11.50;1.00;;;;;;5091274;28;20204;-75
2022/04/07 07:30:51;;;;;;;1.03;0.60;;;11.50;1.00;;;;;;5091743;28;20215;-75
2022/04/07 07:33:18;;;;;;;2.27;1.00;;;11.60;1.00;;;;;;5092812;28;20694;-75
2022/04/07 07:35:46;;;;;;;0.63;0.60;;;11.60;78.90;;;;;;5092782;28;20224;-75
2022/04/07 07:38:13;;;;;;;1.23;0.70;;;11.60;90.20;;;;;;5092268;28;20619;-75
2022/04/07 07:40:40;;;;;;;0.63;0.50;;;11.70;35.80;;;;;;5092132;28;20675;-75
2022/04/07 07:43:08;;;;;;;2.47;0.70;;;11.60;78.00;;;;;;5092457;28;20212;-75
2022/04/07 07:45:36;;;;;;;1.00;0.50;;;11.70;99.90;;;;;;5091773;28;20216;-75
2022/04/07 07:48:03;;;;;;;1.37;0.50;;;11.60;1.00;;;;;;5091733;28;20198;-75
2022/04/07 07:50:30;;;;;;;0.40;0.40;;;11.70;1.00;;;;;;5090895;28;20571;-75
2022/04/07 07:52:56;;;;;;;0.83;0.53;;;11.70;99.90;;;;;;5091489;28;20212;-75
2022/04/07 07:55:23;;;;;;;1.23;0.43;;;11.70;99.90;;;;;;5090856;28;20201;-76
2022/04/07 07:57:50;;;;;;;0.93;0.57;;;11.70;99.90;;;;;;5090956;28;20680;-76
2022/04/07 08:00:19;;;;;;;0.43;0.43;;;11.80;99.90;;;;;;5091703;28;20186;-76
2022/04/07 08:02:46;;;;;;;0.47;0.47;;;11.80;99.90;;;;;;5092026;28;20212;-76
2022/04/07 08:05:13;;;;;;;1.80;0.70;;;11.90;99.90;;;;;;5092084;28;20202;-76
2022/04/07 08:07:40;;;;;;;0.73;0.40;;;12.00;1.00;;;;;;5091431;28;20293;-76
2022/04/07 08:10:08;;;;;;;1.50;0.50;;;12.10;1.00;;;;;;5091934;28;20201;-76
2022/04/07 08:12:35;;;;;;;1.47;0.60;;;12.10;99.90;;;;;;5090374;28;20205;-76
2022/04/07 08:15:03;;;;;;;0.30;0.30;;;12.30;1.00;;;;;;5092143;28;20205;-76
2022/04/07 08:17:32;;;;;;;0.47;0.30;;;12.40;1.00;;;;;;5091208;28;20584;-76
2022/04/07 08:19:59;;;;;;;0.33;0.33;;;12.50;1.00;;;;;;5091705;28;20644;-76
2022/04/07 08:22:27;;;;;;;0.47;0.47;;;12.60;99.90;;;;;;5092038;28;20573;-76
2022/04/07 08:24:55;;;;;;;0.40;0.40;;;12.50;99.90;;;;;;5092038;28;20244;-76
2022/04/07 08:27:23;;;;;;;0.67;0.30;;;12.50;1.00;;;;;;5091111;28;20205;-76
2022/04/07 08:29:50;;;;;;;1.60;0.40;;;12.50;1.00;;;;;;5090998;28;20201;-76
2022/04/07 08:32:17;;;;;;;1.23;0.80;;;12.50;42.10;;;;;;5091424;28;20212;-76
2022/04/07 08:34:46;;;;;;;0.53;0.40;;;12.50;99.90;;;;;;5091361;28;20217;-75
2022/04/07 08:37:12;;;;;;;0.40;0.30;;;12.30;1.00;;;;;;5090169;28;20206;-76
2022/04/07 08:39:39;;;;;;;1.83;0.50;;;12.20;1.00;;;;;;5091116;28;20256;-76
2022/04/07 08:42:07;;;;;;;0.50;0.50;;;12.10;1.00;;;;;;5091265;28;20198;-76
2022/04/07 08:44:35;;;;;;;0.50;0.33;;;12.10;1.00;;;;;;5091620;28;20208;-76
2022/04/07 08:47:02;;;;;;;0.53;0.53;;;12.00;99.90;;;;;;5090399;28;20205;-76
2022/04/07 08:49:32;;;;;;;1.10;0.80;;;11.90;1.00;;;;;;5090527;28;20560;-76
2022/04/07 08:52:00;;;;;;;0.30;0.30;;;11.90;1.00;;;;;;5090898;28;20205;-76
2022/04/07 08:54:27;;;;;;;0.93;0.50;;;11.80;99.90;;;;;;5091256;28;20202;-75
2022/04/07 08:56:54;;;;;;;0.80;0.57;;;11.80;1.00;;;;;;5091285;28;20201;-76
2022/04/07 08:59:21;;;;;;;1.70;0.37;;;11.70;99.90;;;;;;5090937;28;20229;-75
2022/04/07 09:01:47;;;;;;;0.67;0.30;;;11.60;1.00;;;;;;5090292;28;20220;-75
2022/04/07 09:04:15;;;;;;;0.47;0.30;;;11.60;99.90;;;;;;5091081;28;20212;-75
2022/04/07 09:06:43;;;;;;;0.47;0.30;;;11.50;24.50;;;;;;5091315;28;20683;-75
2022/04/07 09:09:12;;;;;;;1.27;0.30;;;11.40;1.00;;;;;;5094220;28;20201;-76
2022/04/07 09:11:39;;;;;;;0.80;0.37;;;11.30;1.00;;;;;;5095337;28;20284;-76
2022/04/07 09:14:06;;;;;;;1.77;0.60;;;11.10;1.00;;;;;;5094162;28;20216;-77
2022/04/07 09:16:37;;;;;;;3.10;0.40;;;11.10;1.00;;;;;;5094589;28;20656;-78
2022/04/07 09:19:05;;;;;;;1.00;0.40;;;11.10;1.00;;;;;;5093849;28;20234;-77
2022/04/07 09:21:34;;;;;;;0.60;0.57;;;10.90;1.00;;;;;;5095415;28;20182;-78
2022/04/07 09:24:05;;;;;;;2.83;0.53;;;10.90;1.00;;;;;;5094528;28;20588;-78
2022/04/07 09:26:36;;;;;;;1.50;0.40;;;11.00;1.00;;;;;;5093949;28;20570;-78
2022/04/07 09:29:10;;;;;;;0.30;0.30;;;11.00;76.00;;;;;;5094553;28;20233;-78
2022/04/07 09:31:51;;;;;;;2.10;0.30;;;11.00;57.50;;;;;;5094751;28;20258;-78
2022/04/07 09:34:30;;;;;;;0.30;0.30;;;11.20;1.00;;;;;;5076565;28;20205;-78
2022/04/07 09:37:04;;;;;;;1.40;0.47;;;11.10;1.00;;;;;;5094650;28;20296;-78
2022/04/07 09:39:33;;;;;;;0.47;0.30;;;11.00;99.90;;;;;;5093688;28;20236;-78
2022/04/07 09:42:19;;;;;;;3.73;0.57;;;10.90;1.00;;;;;;5093759;28;20225;-77
2022/04/07 09:44:50;;;;;;;0.70;0.40;;;10.80;6.80;;;;;;5094528;28;20248;-78
2022/04/07 09:47:17;;;;;;;0.23;0.23;;;10.70;99.90;;;;;;5093786;28;20648;-79
2022/04/07 09:49:44;;;;;;;3.00;0.70;;;10.60;99.90;;;;;;5093737;28;20202;-78
2022/04/07 09:52:12;;;;;;;1.10;0.33;;;10.60;99.90;;;;;;5093885;28;20206;-78
2022/04/07 09:54:41;;;;;;;2.83;0.80;;;10.60;99.90;;;;;;5094408;28;20574;-78
2022/04/07 09:57:10;;;;;;;0.30;0.30;;;10.80;99.90;;;;;;5094004;28;20583;-77
2022/04/07 09:59:40;;;;;;;0.30;0.30;;;11.00;99.90;;;;;;5093071;28;20692;-78
2022/04/07 10:02:07;;;;;;;0.20;0.20;;;11.10;99.90;;;;;;5093683;28;20202;-77
2022/04/07 10:04:35;;;;;;;0.63;0.27;;;11.20;99.90;;;;;;5094444;28;20259;-77
2022/04/07 10:07:04;;;;;;;0.10;0.10;;;11.40;99.90;;;;;;5093257;28;20206;-77
2022/04/07 10:09:32;;;;;;;0.70;0.33;;;11.50;99.90;;;;;;5093872;28;20576;-77
2022/04/07 10:12:00;;;;;;;0.30;0.30;;;11.80;99.90;;;;;;5093986;28;20201;-77
2022/04/07 10:14:29;;;;;;;0.60;0.10;;;12.10;99.90;;;;;;5094212;28;20213;-77
2022/04/07 10:16:55;;;;;;;0.47;0.40;;;12.00;80.40;;;;;;5094040;28;20205;-77
2022/04/07 10:19:28;;;;;;;2.00;0.20;;;11.80;81.20;;;;;;5092628;28;20218;-73
2022/04/07 10:22:16;;;;;;;0.63;0.30;;;11.70;99.90;;;;;;5092729;28;20247;-73
2022/04/07 10:24:47;;;;;;;0.83;0.23;;;11.50;99.90;;;;;;5093151;28;20251;-73
2022/04/07 10:27:16;;;;;;;1.90;0.30;;;11.30;99.90;;;;;;5092566;28;20208;-73
2022/04/07 10:30:03;;;;;;;3.30;0.63;;;11.20;99.90;;;;;;5092537;28;20274;-73
2022/04/07 10:32:36;;;;;;;1.10;0.73;;;11.10;99.90;;;;;;5092025;28;20681;-73
2022/04/07 10:35:03;;;;;;;0.30;0.23;;;11.30;99.90;;;;;;5092943;28;20721;-73
2022/04/07 10:37:47;;;;;;;1.03;0.50;;;11.40;99.90;;;;;;5092220;28;20619;-73
2022/04/07 10:40:38;;;;;;;0.50;0.30;;;11.90;99.90;;;;;;5091940;28;20205;-73
2022/04/07 10:43:22;;;;;;;0.40;0.40;;;12.00;99.90;;;;;;5087162;28;20244;-73
2022/04/07 10:45:52;;;;;;;0.30;0.30;;;12.30;99.90;;;;;;5092777;28;20228;-73
2022/04/07 10:48:29;;;;;;;0.43;0.20;;;12.20;68.10;;;;;;5099436;28;20485;-73
2022/04/07 10:50:58;;;;;;;0.33;0.13;;;11.90;99.90;;;;;;5096692;28;20203;-73
2022/04/07 10:53:28;;;;;;;0.57;0.40;;;11.70;99.90;;;;;;5111268;28;20197;-73
2022/04/07 10:56:07;;;;;;;0.50;0.50;;;11.60;99.90;;;;;;5112871;28;20309;-73
2022/04/07 10:58:49;;;;;;;0.20;0.17;;;11.60;99.90;;;;;;5111321;28;20760;-73
2022/04/07 11:01:53;;;;;;;3.47;0.60;;;8.70;1.00;;;;;;5095352;28;20198;-73
2022/04/07 11:05:08;;;;;;;3.67;0.63;;;6.50;99.90;;;;;;5091214;28;20204;-73
2022/04/07 11:07:50;;;;;;;0.50;0.20;;;5.70;99.90;;;;;;5091285;28;20201;-73
2022/04/07 11:10:19;;;;;;;1.13;0.33;;;5.50;99.90;;;;;;5091529;28;20198;-73
2022/04/07 11:13:02;;;;;;;0.77;0.33;;;5.80;99.90;;;;;;5091164;28;20202;-73
2022/04/07 11:15:36;;;;;;;1.50;0.30;;;6.00;99.90;;;;;;5092455;28;20210;-73
2022/04/07 11:18:19;;;;;;;1.03;0.30;;;6.30;99.90;;;;;;5091395;28;20197;-73
2022/04/07 11:21:02;;;;;;;2.60;0.50;;;6.60;99.90;;;;;;5092196;28;20194;-73
2022/04/07 11:23:51;;;;;;;2.47;0.40;;;6.70;99.90;;;;;;5091877;28;20209;-73
2022/04/07 11:26:27;;;;;;;3.30;0.50;;;6.80;99.90;;;;;;5091200;28;20281;-73
2022/04/07 11:29:06;;;;;;;0.63;0.10;;;6.70;99.90;;;;;;5091390;28;20209;-73
2022/04/07 11:31:48;;;;;;;2.87;0.20;;;6.70;99.90;;;;;;5090786;28;20251;-73
2022/04/07 11:35:00;;;;;;;2.20;0.20;;;6.80;99.90;;;;;;5092101;28;20648;-73
2022/04/07 11:37:30;;;;;;;1.87;0.40;;;6.90;99.90;;;;;;5090685;28;20263;-73
2022/04/07 11:39:57;;;;;;;2.03;0.13;;;6.80;99.90;;;;;;5091059;28;20225;-73
2022/04/07 11:42:24;;;;;;;1.07;0.20;;;6.80;99.90;;;;;;5091256;28;20280;-73
2022/04/07 11:44:59;;;;;;;1.73;0.70;;;6.70;99.90;;;;;;5091629;28;20210;-73
2022/04/07 11:47:30;;;;;;;0.50;0.13;;;7.10;99.90;;;;;;5090554;28;20200;-73
2022/04/07 11:49:57;;;;;;;2.57;0.40;;;7.00;99.90;;;;;;5090021;28;20194;-73
2022/04/07 11:52:37;;;;;;;0.30;0.20;;;7.10;99.90;;;;;;5090539;28;20213;-73
2022/04/07 11:55:06;;;;;;;2.60;0.40;;;7.20;99.90;;;;;;5089324;28;20210;-73
2022/04/07 11:57:34;;;;;;;0.57;0.27;;;7.50;99.90;;;;;;5090955;28;20254;-73
2022/04/07 12:00:05;;;;;;;0.50;0.40;;;7.60;99.90;;;;;;5089065;28;20225;-73
2022/04/07 12:02:32;;;;;;;0.57;0.33;;;7.80;99.90;;;;;;5090547;28;20288;-73
2022/04/07 12:05:00;;;;;;;0.27;0.20;;;7.90;99.90;;;;;;5090402;28;20194;-73
2022/04/07 12:07:29;;;;;;;0.30;0.30;;;8.10;99.90;;;;;;5090368;28;20248;-73
2022/04/07 12:10:05;;;;;;;0.30;0.30;;;8.30;99.90;;;;;;5090580;28;20202;-73
2022/04/07 12:12:33;;;;;;;0.20;0.20;;;8.40;99.90;;;;;;5090428;28;20258;-73
2022/04/07 12:15:00;;;;;;;0.40;0.40;;;8.40;99.90;;;;;;5091409;28;20300;-73
2022/04/07 12:17:27;;;;;;;0.97;0.40;;;8.70;99.90;;;;;;5090570;28;20202;-73
2022/04/07 12:19:54;;;;;;;0.30;0.30;;;9.00;99.90;;;;;;5090447;28;20275;-73
2022/04/07 12:22:32;;;;;;;0.37;0.30;;;9.20;99.90;;;;;;5089948;28;20254;-73
2022/04/07 12:25:00;;;;;;;2.67;0.60;;;9.70;99.90;;;;;;5070579;28;20198;-73
2022/04/07 12:27:30;;;;;;;0.57;0.30;;;10.20;99.90;;;;;;5070072;28;20194;-73
2022/04/07 12:29:58;;;;;;;0.70;0.30;;;10.10;99.90;;;;;;5078989;28;20214;-73
2022/04/07 12:32:26;;;;;;;1.80;0.50;;;9.90;99.90;;;;;;5089779;28;20208;-73
2022/04/07 12:34:54;;;;;;;0.53;0.50;;;10.50;99.90;;;;;;5088569;28;20213;-73
2022/04/07 12:37:28;;;;;;;0.40;0.40;;;10.50;19.00;;;;;;5089971;28;20204;-73
2022/04/07 12:39:57;;;;;;;1.90;0.67;;;10.70;1.00;;;;;;5069907;28;20313;-74
2022/04/07 12:42:25;;;;;;;1.00;0.63;;;10.30;1.00;;;;;;5069866;28;20289;-74
2022/04/07 12:45:05;;;;;;;2.43;0.77;;;10.10;1.00;;;;;;5083114;28;20213;-73
2022/04/07 12:47:32;;;;;;;0.80;0.80;;;10.00;1.00;;;;;;5094257;28;20251;-74
2022/04/07 12:50:01;;;;;;;2.33;1.17;;;10.20;99.90;;;;;;5094453;28;20283;-73
2022/04/07 12:52:39;;;;;;;1.40;1.03;;;10.40;1.00;;;;;;5094816;28;20205;-73
2022/04/07 12:55:11;;;;;;;2.77;1.00;;;10.90;1.00;;;;;;5093789;28;20205;-73
2022/04/07 12:57:40;;;;;;;0.93;0.80;;;11.10;1.00;;;;;;5093430;28;20279;-74
2022/04/07 13:00:10;;;;;;;1.70;0.93;;;11.50;1.00;;;;;;5093595;28;20239;-73
2022/04/07 13:02:48;;;;;;;2.10;0.77;;;11.50;1.00;;;;;;5093637;28;20243;-73
2022/04/07 13:05:24;;;;;;;3.70;1.00;;;11.60;99.90;;;;;;5094663;28;20201;-74